Terminal Aerodrome Forecast
Issued by NWS

Home | Current Version | Previous Version | Graphics & Text | Print | Product List | Glossary On
Versions: 1 2 3 4 5 6 7 8 9 10 11 12 13 14 15 16 17 18 19 20 21 22 23 24 25 26 27 28 29 30 31
000
FTUS45 KGGW 021400 AAA
TAFGDV
TAF AMD
KGDV 021448Z 0215/0312 19015KT P6SM -SHRA SCT006 OVC030
      TEMPO 0215/0217 3SM SHRA
     FM021800 34010KT P6SM VCSH OVC020
     FM030300 36008KT P6SM BKN025 BKN040
      AMD LTD TO CLD VIS AND WIND=

USA.gov is the U.S. government's official web portal to all federal, state and local government web resources and services.